DLH1KJ EDDF-LSZH
Flight info
| Callsign | DLH1KJ |
|---|---|
| Flight time | 0h 32m |
| Altitude | 23000 |
| Route | ANEKI2L/18 ANEKI Y163 NEKLO Y171 INKAM T725 LAMGO T721 RILAX |
| Aircraft | A319/M-SDE2E3FGIJ1LORWXYZ/HB1 |
Departure
| Time | 2026-05-04 13:22 |
|---|---|
| Airport | Frankfurt Main Airport (EDDF) |
Arrival
| Time | 2026-05-04 13:55 |
|---|---|
| Airport | Zürich Airport (LSZH) |
| Time | Latitude | Longitude | Altitude | Speed | Heading |
|---|---|---|---|---|---|
| 2026-05-04 12:56 | 50.03693 | 8.54142 | 352 ft | 0 kts | 160° |
| 2026-05-04 13:18 | 50.03680 | 8.54150 | 350 ft | 5 kts | 160° |
| 2026-05-04 13:19 | 50.03648 | 8.54166 | 350 ft | 9 kts | 168° |
| 2026-05-04 13:19 | 50.03600 | 8.54075 | 348 ft | 15 kts | 250° |
| 2026-05-04 13:19 | 50.03557 | 8.53895 | 339 ft | 20 kts | 250° |
| 2026-05-04 13:19 | 50.03511 | 8.53701 | 337 ft | 12 kts | 249° |
| 2026-05-04 13:20 | 50.03485 | 8.53595 | 338 ft | 7 kts | 249° |
| 2026-05-04 13:20 | 50.03465 | 8.53510 | 339 ft | 11 kts | 249° |
| 2026-05-04 13:20 | 50.03430 | 8.53366 | 335 ft | 17 kts | 250° |
| 2026-05-04 13:20 | 50.03381 | 8.53158 | 336 ft | 24 kts | 249° |
| 2026-05-04 13:21 | 50.03316 | 8.52890 | 332 ft | 28 kts | 249° |
| 2026-05-04 13:21 | 50.03267 | 8.52683 | 335 ft | 8 kts | 250° |
| 2026-05-04 13:21 | 50.03247 | 8.52608 | 334 ft | 8 kts | 232° |
| 2026-05-04 13:21 | 50.03178 | 8.52596 | 336 ft | 18 kts | 180° |
| 2026-05-04 13:22 | 50.02779 | 8.52599 | 333 ft | 96 kts | 180° |
| 2026-05-04 13:22 | 50.01894 | 8.52607 | 338 ft | 158 kts | 180° |
| 2026-05-04 13:22 | 50.00751 | 8.52600 | 879 ft | 165 kts | 181° |
| 2026-05-04 13:22 | 49.99593 | 8.52644 | 1653 ft | 170 kts | 180° |
| 2026-05-04 13:23 | 49.98338 | 8.52725 | 2164 ft | 191 kts | 180° |
| 2026-05-04 13:23 | 49.96921 | 8.52825 | 2562 ft | 217 kts | 181° |
| 2026-05-04 13:23 | 49.95380 | 8.52937 | 3397 ft | 225 kts | 179° |
| 2026-05-04 13:23 | 49.93784 | 8.53055 | 3844 ft | 231 kts | 180° |
| 2026-05-04 13:24 | 49.92176 | 8.53174 | 3983 ft | 231 kts | 180° |
| 2026-05-04 13:24 | 49.90557 | 8.53291 | 4328 ft | 238 kts | 181° |
| 2026-05-04 13:24 | 49.88910 | 8.53410 | 5419 ft | 237 kts | 180° |
| 2026-05-04 13:25 | 49.85615 | 8.53650 | 7516 ft | 236 kts | 179° |
| 2026-05-04 13:25 | 49.83971 | 8.53761 | 8542 ft | 237 kts | 179° |
| 2026-05-04 13:25 | 49.82324 | 8.53866 | 9611 ft | 237 kts | 178° |
| 2026-05-04 13:25 | 49.80673 | 8.53977 | 10575 ft | 238 kts | 178° |
| 2026-05-04 13:26 | 49.79002 | 8.54094 | 11455 ft | 242 kts | 178° |
| 2026-05-04 13:26 | 49.77296 | 8.54050 | 12214 ft | 253 kts | 185° |
| 2026-05-04 13:26 | 49.75460 | 8.53808 | 12600 ft | 277 kts | 185° |
| 2026-05-04 13:26 | 49.73457 | 8.53535 | 12932 ft | 301 kts | 185° |
| 2026-05-04 13:27 | 49.71297 | 8.53239 | 13419 ft | 318 kts | 185° |
| 2026-05-04 13:27 | 49.69073 | 8.52940 | 14137 ft | 324 kts | 185° |
| 2026-05-04 13:27 | 49.66812 | 8.52639 | 14879 ft | 328 kts | 185° |
| 2026-05-04 13:27 | 49.64556 | 8.52340 | 15631 ft | 331 kts | 186° |
| 2026-05-04 13:28 | 49.62221 | 8.52033 | 16399 ft | 334 kts | 186° |
| 2026-05-04 13:28 | 49.59893 | 8.51729 | 17146 ft | 338 kts | 186° |
| 2026-05-04 13:28 | 49.57532 | 8.51419 | 17884 ft | 342 kts | 186° |
| 2026-05-04 13:28 | 49.55151 | 8.51106 | 18566 ft | 345 kts | 186° |
| 2026-05-04 13:29 | 49.52747 | 8.50791 | 19213 ft | 348 kts | 186° |
| 2026-05-04 13:29 | 49.50332 | 8.50474 | 19858 ft | 350 kts | 186° |
| 2026-05-04 13:29 | 49.47894 | 8.50152 | 20511 ft | 353 kts | 186° |
| 2026-05-04 13:29 | 49.45469 | 8.49831 | 21149 ft | 355 kts | 186° |
| 2026-05-04 13:30 | 49.42996 | 8.49510 | 21787 ft | 358 kts | 187° |
| 2026-05-04 13:30 | 49.40507 | 8.49189 | 22438 ft | 360 kts | 187° |
| 2026-05-04 13:30 | 49.37990 | 8.48861 | 22888 ft | 363 kts | 187° |
| 2026-05-04 13:30 | 49.35487 | 8.48536 | 22988 ft | 357 kts | 187° |
| 2026-05-04 13:31 | 49.33063 | 8.48222 | 23005 ft | 347 kts | 187° |
| 2026-05-04 13:31 | 49.30581 | 8.47931 | 23002 ft | 369 kts | 183° |
| 2026-05-04 13:31 | 49.27975 | 8.48559 | 22998 ft | 392 kts | 164° |
| 2026-05-04 13:31 | 49.25518 | 8.50513 | 23002 ft | 404 kts | 149° |
| 2026-05-04 13:32 | 49.23185 | 8.52924 | 22996 ft | 405 kts | 150° |
| 2026-05-04 13:32 | 49.20824 | 8.55271 | 22990 ft | 405 kts | 151° |
| 2026-05-04 13:32 | 49.18438 | 8.57570 | 22992 ft | 406 kts | 152° |
| 2026-05-04 13:32 | 49.16038 | 8.59843 | 22992 ft | 406 kts | 152° |
| 2026-05-04 13:33 | 49.13522 | 8.61762 | 22993 ft | 402 kts | 161° |
| 2026-05-04 13:33 | 49.10937 | 8.63405 | 22991 ft | 402 kts | 160° |
| 2026-05-04 13:33 | 49.08358 | 8.65066 | 22992 ft | 403 kts | 160° |
| 2026-05-04 13:33 | 49.05782 | 8.66744 | 22992 ft | 403 kts | 160° |
| 2026-05-04 13:34 | 49.03207 | 8.68428 | 22984 ft | 402 kts | 160° |
| 2026-05-04 13:34 | 49.00673 | 8.70080 | 22980 ft | 402 kts | 160° |
| 2026-05-04 13:34 | 48.98099 | 8.71755 | 22978 ft | 402 kts | 160° |
| 2026-05-04 13:34 | 48.95523 | 8.73423 | 22976 ft | 402 kts | 160° |
| 2026-05-04 13:35 | 48.92951 | 8.75083 | 22976 ft | 402 kts | 160° |
| 2026-05-04 13:35 | 48.87626 | 8.77322 | 22962 ft | 395 kts | 181° |
| 2026-05-04 13:35 | 48.84905 | 8.76952 | 22962 ft | 393 kts | 192° |
| 2026-05-04 13:36 | 48.82214 | 8.76223 | 22961 ft | 393 kts | 192° |
| 2026-05-04 13:36 | 48.79518 | 8.75490 | 22962 ft | 394 kts | 192° |
| 2026-05-04 13:36 | 48.76819 | 8.74757 | 22962 ft | 394 kts | 192° |
| 2026-05-04 13:36 | 48.74112 | 8.74025 | 22955 ft | 395 kts | 192° |
| 2026-05-04 13:37 | 48.71401 | 8.73296 | 22956 ft | 395 kts | 192° |
| 2026-05-04 13:37 | 48.68696 | 8.72575 | 22952 ft | 395 kts | 191° |
| 2026-05-04 13:37 | 48.65984 | 8.71858 | 22954 ft | 396 kts | 191° |
| 2026-05-04 13:37 | 48.64185 | 8.71384 | 22955 ft | 396 kts | 191° |
| 2026-05-04 13:38 | 48.60584 | 8.70436 | 22623 ft | 385 kts | 191° |
| 2026-05-04 13:38 | 48.57992 | 8.69751 | 22485 ft | 371 kts | 192° |
| 2026-05-04 13:38 | 48.55486 | 8.69086 | 22349 ft | 359 kts | 192° |
| 2026-05-04 13:38 | 48.53050 | 8.68438 | 22039 ft | 352 kts | 192° |
| 2026-05-04 13:39 | 48.50650 | 8.67797 | 21615 ft | 348 kts | 192° |
| 2026-05-04 13:39 | 48.48277 | 8.67164 | 21173 ft | 345 kts | 192° |
| 2026-05-04 13:39 | 48.45919 | 8.66535 | 20720 ft | 342 kts | 192° |
| 2026-05-04 13:39 | 48.43612 | 8.65922 | 20291 ft | 340 kts | 192° |
| 2026-05-04 13:40 | 48.41290 | 8.65306 | 19855 ft | 337 kts | 191° |
| 2026-05-04 13:40 | 48.38982 | 8.64698 | 19413 ft | 335 kts | 191° |
| 2026-05-04 13:40 | 48.36696 | 8.64086 | 18918 ft | 332 kts | 192° |
| 2026-05-04 13:40 | 48.34443 | 8.63432 | 18423 ft | 329 kts | 192° |
| 2026-05-04 13:41 | 48.32204 | 8.62750 | 17882 ft | 327 kts | 193° |
| 2026-05-04 13:41 | 48.29987 | 8.62062 | 17325 ft | 325 kts | 193° |
| 2026-05-04 13:41 | 48.27781 | 8.61377 | 16773 ft | 323 kts | 193° |
| 2026-05-04 13:42 | 48.23393 | 8.60034 | 15888 ft | 319 kts | 193° |
| 2026-05-04 13:42 | 48.21228 | 8.59379 | 15502 ft | 316 kts | 193° |
| 2026-05-04 13:42 | 48.19076 | 8.58731 | 15115 ft | 314 kts | 193° |
| 2026-05-04 13:42 | 48.16940 | 8.58095 | 14736 ft | 311 kts | 193° |
| 2026-05-04 13:43 | 48.14825 | 8.57464 | 14360 ft | 309 kts | 193° |
| 2026-05-04 13:43 | 48.12715 | 8.56834 | 13984 ft | 308 kts | 193° |
| 2026-05-04 13:43 | 48.10619 | 8.56207 | 13581 ft | 306 kts | 193° |
| 2026-05-04 13:43 | 48.08535 | 8.55585 | 13194 ft | 304 kts | 193° |
| 2026-05-04 13:44 | 48.06468 | 8.54970 | 12814 ft | 302 kts | 193° |
| 2026-05-04 13:44 | 48.04413 | 8.54358 | 12437 ft | 299 kts | 193° |
| 2026-05-04 13:44 | 48.02378 | 8.53755 | 12058 ft | 297 kts | 193° |
| 2026-05-04 13:44 | 48.00353 | 8.53156 | 11678 ft | 296 kts | 193° |
| 2026-05-04 13:45 | 47.98367 | 8.52567 | 11303 ft | 294 kts | 193° |
| 2026-05-04 13:45 | 47.96362 | 8.51973 | 10916 ft | 293 kts | 193° |
| 2026-05-04 13:45 | 47.94365 | 8.51379 | 10531 ft | 291 kts | 193° |
| 2026-05-04 13:45 | 47.92400 | 8.50667 | 10142 ft | 290 kts | 196° |
| 2026-05-04 13:46 | 47.90466 | 8.49845 | 9825 ft | 286 kts | 197° |
| 2026-05-04 13:46 | 47.88593 | 8.49006 | 9413 ft | 279 kts | 197° |
| 2026-05-04 13:46 | 47.86735 | 8.48167 | 8950 ft | 279 kts | 197° |
| 2026-05-04 13:46 | 47.84877 | 8.47337 | 8531 ft | 278 kts | 197° |
| 2026-05-04 13:47 | 47.83031 | 8.46523 | 8135 ft | 276 kts | 197° |
| 2026-05-04 13:47 | 47.81179 | 8.45716 | 7725 ft | 278 kts | 196° |
| 2026-05-04 13:47 | 47.79325 | 8.44917 | 7326 ft | 277 kts | 196° |
| 2026-05-04 13:47 | 47.77471 | 8.44123 | 6910 ft | 276 kts | 195° |
| 2026-05-04 13:48 | 47.75640 | 8.43343 | 6554 ft | 273 kts | 195° |
| 2026-05-04 13:48 | 47.73827 | 8.42573 | 6059 ft | 275 kts | 195° |
| 2026-05-04 13:48 | 47.71996 | 8.41794 | 5645 ft | 273 kts | 195° |
| 2026-05-04 13:48 | 47.70168 | 8.41016 | 5259 ft | 271 kts | 195° |
| 2026-05-04 13:49 | 47.68410 | 8.40266 | 5193 ft | 256 kts | 195° |
| 2026-05-04 13:49 | 47.66751 | 8.39557 | 5099 ft | 241 kts | 195° |
| 2026-05-04 13:49 | 47.65183 | 8.38887 | 5002 ft | 229 kts | 194° |
| 2026-05-04 13:49 | 47.63683 | 8.38246 | 4902 ft | 220 kts | 195° |
| 2026-05-04 13:50 | 47.62247 | 8.37653 | 4809 ft | 210 kts | 189° |
| 2026-05-04 13:50 | 47.60811 | 8.37608 | 4592 ft | 206 kts | 169° |
| 2026-05-04 13:50 | 47.59492 | 8.38320 | 4398 ft | 199 kts | 148° |
| 2026-05-04 13:50 | 47.58436 | 8.39579 | 4120 ft | 192 kts | 136° |
| 2026-05-04 13:51 | 47.57474 | 8.40906 | 3878 ft | 186 kts | 136° |
| 2026-05-04 13:51 | 47.56557 | 8.42168 | 3642 ft | 179 kts | 137° |
| 2026-05-04 13:51 | 47.55652 | 8.43411 | 3410 ft | 175 kts | 137° |
| 2026-05-04 13:51 | 47.54768 | 8.44624 | 3202 ft | 172 kts | 137° |
| 2026-05-04 13:52 | 47.53095 | 8.46918 | 2764 ft | 155 kts | 137° |
| 2026-05-04 13:52 | 47.52317 | 8.47984 | 2558 ft | 149 kts | 138° |
| 2026-05-04 13:52 | 47.51568 | 8.49010 | 2351 ft | 145 kts | 137° |
| 2026-05-04 13:53 | 47.50832 | 8.50017 | 2119 ft | 143 kts | 137° |
| 2026-05-04 13:53 | 47.50102 | 8.51011 | 1915 ft | 142 kts | 136° |
| 2026-05-04 13:53 | 47.49377 | 8.52007 | 1745 ft | 142 kts | 136° |
| 2026-05-04 13:54 | 47.47929 | 8.53990 | 1404 ft | 138 kts | 136° |
| 2026-05-04 13:54 | 47.47286 | 8.54867 | 1399 ft | 113 kts | 137° |
| 2026-05-04 13:54 | 47.46477 | 8.55975 | 1396 ft | 53 kts | 137° |
| 2026-05-04 13:55 | 47.46267 | 8.56260 | 1398 ft | 25 kts | 137° |
| 2026-05-04 13:55 | 47.46042 | 8.56327 | 1402 ft | 11 kts | 184° |
| 2026-05-04 13:55 | 47.45966 | 8.56319 | 1403 ft | 11 kts | 186° |
| 2026-05-04 13:56 | 47.45889 | 8.56307 | 1403 ft | 12 kts | 186° |
| 2026-05-04 13:56 | 47.45797 | 8.56293 | 1404 ft | 14 kts | 186° |
| 2026-05-04 13:56 | 47.45610 | 8.56293 | 1400 ft | 10 kts | 118° |
| 2026-05-04 13:57 | 47.45598 | 8.56395 | 1399 ft | 9 kts | 116° |
| 2026-05-04 13:57 | 47.45558 | 8.56364 | 1404 ft | 8 kts | 244° |
| 2026-05-04 13:58 | 47.45473 | 8.56132 | 1402 ft | 8 kts | 239° |
| 2026-05-04 13:58 | 47.45404 | 8.56118 | 1397 ft | 0 kts | 186° |